EFHK/HEL METAR and TAF weather

Enter ICAO airport designator
Station Type Date Time Source
EFHK METAR 2018/01/17 06:20 UTC NOAA

EFHK 170620Z 12016KT 7000 -SN BKN018 M07/M10 Q0999 TEMPO 4000


Station Type Date Time Source
EFHK Decoded METAR 2018/01/17 06:20 UTC NOAA

Helsinki-Vantaa, Finland (EFHK) 60-19N 024-58E 56M
Jan 17, 2018 - 01:20 AM EST / 2018.01.17 0620 UTC
Wind: from the ESE (120 degrees) at 18 MPH (16 KT):0
Visibility: 4 mile(s):0
Sky conditions: mostly cloudy
Weather: light snow
Temperature: 19 F (-7 C)
Windchill: 3 F (-16 C):1
Dew Point: 14 F (-10 C)
Relative Humidity: 79%
Pressure (altimeter): 29.50 in. Hg (0999 hPa)
ob: EFHK 170620Z 12016KT 7000 -SN BKN018 M07/M10 Q0999 TEMPO 4000
cycle: 6

Station Type Date Time Source
EFHK TAF 2018/01/17 06:42 UTC NOAA

TAF TAF EFHK 170530Z 1706/1806 12014KT 9999 -SN BKN018
TEMPO 1706/1710 BKN013 PROB30 1706/1710 12015G25KT 4000 -SN
TEMPO 1714/1723 3000 -SN
BECMG 1723/1801 3000 -SN BKN013


Example: see airport list